Weather observations for the past three days for
Bemidji
Metric (Imperial)
Date Time (cdt) Wind (kph) Vis. (km) Weather Sky Cond. Temperature (ºC) Relative Humidity Wind Chill (°C) Heat Index (°C) Pressure Precipitation (cm)
Air Dwpt 6 hour altimeter (cm) sea level (mb) 1 hr 3 hr 6 hr
Max. Min.
06 16:15 W 20 G 30 16.09 Overcast SCT044 OVC050 4.3 -5.4 50% 1 76.07 0.0
06 15:55 W 24 G 31 16.09 Overcast SCT044 OVC050 4.3 -5.4 50% 0 76.07 0.0
06 15:35 NW 17 16.09 Overcast SCT041 OVC050 4.2 -4.8 52% 1 76.1 0.0
06 15:15 W 26 16.09 Overcast BKN041 BKN047 OVC055 4.2 -4.8 52% -0 76.1 0.0
06 14:55 NW 24 16.09 Overcast OVC041 3.9 -5 53% -0 76.1 0.0
06 14:35 W 26 G 35 16.09 Overcast SCT039 BKN045 OVC050 4.3 -5 51% -0 76.1 0.0
06 14:15 W 17 G 26 16.09 Overcast SCT035 OVC044 3.7 -4.6 55% 0 76.1 0.0
06 13:55 NW 17 16.09 Overcast SCT035 BKN042 OVC049 3.6 -4.5 56% 0 76.1 0.0
06 13:35 NW 20 16.09 Overcast BKN033 BKN040 OVC047 3.7 -4.2 57% -0 76.12 0.0
06 13:15 W 19 G 37 16.09 Overcast BKN034 OVC043 3.4 -4.5 57% -0 76.12 0.0
06 12:55 W 22 G 30 16.09 Overcast SCT024 BKN031 OVC050 4.1 -3.7 4.3 -0.1 57% 0 76.12 0.0
06 12:35 NW 24 16.09 Overcast BKN026 OVC035 3.1 -2.9 65% -1 76.15 0.0
06 12:15 NW 20 11.27 Overcast SCT023 OVC033 2.3 -2.5 71% -2 76.17 0.0
06 11:55 NW 22 G 33 16.09 Overcast BKN023 OVC030 2.6 -2.9 67% -2 76.17 0.0
06 11:35 NW 24 G 30 16.09 Light Rain OVC023 2 -3.4 68% -3 76.2 0.0
06 11:15 NW 20 16.09 Overcast OVC023 1.8 -3.3 69% -3 76.2 0.0
06 10:55 NW 22 16.09 Overcast BKN023 OVC030 2.3 -3.7 65% -2 76.2 0.0
06 10:35 NW 22 G 30 16.09 Overcast BKN023 OVC030 2.3 -3.3 67% -2 76.2 0.0
06 10:15 W 26 16.09 Overcast BKN025 BKN032 OVC040 1.8 -3.7 67% -3 76.2 0.0
06 09:55 W 24 G 31 16.09 Overcast BKN027 OVC034 1.6 -4 67% -3 76.2 0.0
06 09:35 W 22 G 30 16.09 Overcast BKN027 OVC034 1.6 -4.6 64% -3 76.2 0.0
06 09:15 W 22 16.09 Overcast BKN025 BKN034 OVC044 1.4 -4.6 65% -3 76.2 0.0
06 08:55 NW 22 16.09 Overcast BKN025 BKN032 OVC042 1.4 -4.6 65% -3 76.17 0.0
06 08:35 W 19 16.09 Overcast SCT025 SCT033 OVC042 0.9 -4.4 68% -3 76.17 0.0
06 08:15 W 20 16.09 Overcast OVC042 0.7 -4.5 69% -4 76.17 0.0
06 07:55 W 19 16.09 Overcast OVC042 0.3 -4.5 71% -4 76.17 0.0
06 07:35 W 13 16.09 Overcast OVC042 0 -4.8 70% -4 76.17 0.0
06 07:15 W 15 16.09 Overcast OVC042 0 -5 69% -4 76.15 0.0
06 06:55 W 13 16.09 Overcast OVC042 -0.1 -5.2 0.1 -0.3 69% -4 76.12 0.0
06 06:35 W 13 16.09 Overcast OVC040 -0.2 -5.4 68% -4 76.1 0.0
06 06:15 W 13 16.09 Overcast OVC040 -0.2 -5.5 68% -4 76.1 0.0
06 05:55 W 11 16.09 Overcast OVC040 -0.2 -5.5 68% -3 76.07 0.0
06 05:35 W 11 16.09 Overcast OVC040 -0.2 -5.5 68% -3 76.07 0.0
06 05:15 W 11 16.09 Overcast OVC042 -0.2 -5.6 67% -3 76.1 0.0
06 04:55 W 11 16.09 Overcast OVC042 -0.1 -5.7 66% -3 76.07 0.0
06 04:35 W 9 16.09 Overcast OVC040 -0.1 -5.7 66% -3 76.07 0.0
06 04:15 W 11 16.09 Overcast OVC040 0 -5.8 65% -3 76.07 0.0
06 03:55 NW 9 16.09 Overcast OVC038 0 -5.8 65% -3 76.07 0.0
06 03:35 NW 13 16.09 Overcast OVC038 0 -6 64% -4 76.07 0.0
06 03:15 W 11 16.09 Overcast OVC038 0 -6.2 63% -3 76.07 0.0
06 02:55 W 9 16.09 Overcast OVC038 0 -6.5 62% -3 76.07 0.0
06 02:35 W 9 16.09 Overcast OVC038 0 -6.5 62% -3 76.07 0.0
06 02:15 W 9 16.09 Overcast OVC038 0 -6.5 62% -3 76.07 0.0
06 01:55 NW 13 16.09 Overcast OVC038 0 -6.5 62% -4 76.07 0.0
06 01:35 NW 11 16.09 Overcast OVC036 0 -6.5 62% -3 76.07 0.0
06 01:15 NW 13 16.09 Overcast OVC034 0 -6.5 62% -4 76.07 0.0
06 00:55 NW 13 16.09 Overcast OVC034 0 -6.5 2.2 0 62% -4 76.07 0.0
06 00:35 NW 17 16.09 Overcast OVC036 0.1 -6.5 62% -4 76.07 0.0
06 00:15 NW 13 16.09 Overcast OVC038 0.2 -6.1 63% -3 76.07 0.0
05 23:55 NW 17 16.09 Overcast OVC036 0.3 -6.5 61% -4 76.05 0.0
05 23:35 NW 15 16.09 Overcast OVC036 0.5 -6 62% -3 76.05 0.0
05 23:15 NW 13 16.09 Overcast OVC036 0.6 -6.2 61% -3 76.05 0.0
05 22:55 NW 17 16.09 Overcast OVC036 0.7 -6.2 60% -3 76.05 0.0
05 22:35 NW 20 16.09 Overcast OVC036 0.8 -6.5 59% -4 76.05 0.0
05 22:15 NW 17 16.09 Overcast OVC036 1 -6.4 58% -3 76.05 0.0
05 21:55 NW 22 16.09 Overcast OVC036 1.1 -6.2 59% -4 76.05 0.0
05 21:35 NW 19 16.09 Overcast OVC036 1 -6 60% -3 76.02 0.0
05 21:15 NW 11 16.09 Overcast OVC036 1 -6 60% -2 76 0.0
05 20:55 NW 11 16.09 Overcast OVC036 1.2 -6.1 59% -2 76 0.0
05 20:35 NW 22 G 28 16.09 Overcast OVC036 1.5 -6 58% -3 75.97 0.0
05 20:15 NW 13 16.09 Overcast OVC038 1.5 -6 58% -2 75.97 0.0
05 19:55 NW 19 16.09 Overcast OVC038 1.7 -6.1 57% -2 75.97 0.0
05 19:35 NW 20 G 31 16.09 Overcast OVC038 1.9 -6 56% -2 75.95 0.0
05 19:15 NW 24 16.09 Overcast OVC038 2.1 -6 55% -3 75.95 0.0
05 18:55 NW 26 G 33 16.09 Overcast OVC038 2.2 -5.9 3.4 1.5 55% -3 75.92 0.0
05 18:35 NW 26 G 37 16.09 Overcast OVC038 2.5 -6 54% -2 75.92 0.0
05 18:15 NW 26 16.09 Overcast OVC038 2.7 -6 53% -2 75.92 0.0
05 17:55 NW 24 G 37 16.09 Overcast OVC038 3 -5.8 53% -2 75.9 0.0
05 17:35 NW 28 16.09 Overcast OVC040 3 -6 52% -2 75.9 0.0
05 17:15 NW 24 G 31 16.09 Overcast OVC040 3.1 -6.2 51% -1 75.9 0.0
05 16:55 NW 24 G 37 16.09 Overcast OVC040 3.1 -6.2 51% -1 75.9 0.0
05 16:35 NW 22 16.09 Overcast OVC038 2.6 -6.2 53% -2 75.9 0.0
05 16:15 W 26 G 33 16.09 Overcast OVC038 2.9 -6.1 52% -2 75.9 0.0
05 15:55 NW 19 16.09 Overcast OVC038 2.5 -6.4 52% -1 75.92 0.0
05 15:35 W 22 G 30 16.09 Overcast OVC036 2 -6.5 54% -3 75.92 0.0
05 15:15 W 20 G 37 16.09 Overcast OVC036 2 -6.9 52% -2 75.92 0.0
05 14:55 NW 24 16.09 Overcast OVC034 1.6 -6.6 55% -3 75.92 0.0
05 14:35 NW 22 G 31 16.09 Overcast OVC034 1.8 -6.7 54% -3 75.9 0.0
05 14:15 NW 33 16.09 Overcast and Breezy OVC034 1.8 -6.7 54% -4 75.9 0.0
05 13:55 NW 26 G 35 16.09 Overcast OVC034 1.6 -7 53% -4 75.87 0.0
05 13:35 NW 24 G 39 16.09 Overcast OVC036 1.9 -7 52% -3 75.87 0.0
05 13:15 NW 28 G 37 16.09 Overcast OVC034 1.5 -6.8 54% -4 75.84 0.0
05 12:55 NW 28 G 35 16.09 Overcast OVC036 1.5 -7 2.2 -1 54% -4 75.84 0.0
05 12:35 W 24 G 37 16.09 Overcast OVC034 1.5 -7.2 53% -3 75.84 0.0
05 12:15 NW 26 16.09 Overcast OVC032 1.6 -6.4 56% -4 75.84 0.0
05 11:55 NW 26 16.09 Overcast BKN027 OVC035 1.7 -5.7 58% -3 75.79 0.0
05 11:35 NW 30 16.09 Overcast SCT021 BKN026 OVC040 1.1 -5 64% -5 75.79 0.0
05 11:15 NW 24 16.09 Overcast OVC021 -0.3 -5 71% -6 75.79 0.0
05 10:55 NW 22 16.09 Overcast OVC023 -0.1 -5.3 68% -5 75.79 0.0
05 10:35 NW 15 16.09 Overcast OVC023 -0.3 -5.6 68% -4 75.77 0.0
05 10:15 NW 20 G 30 16.09 Overcast OVC025 0 -5.8 65% -5 75.77 0.0
05 09:55 NW 26 G 31 16.09 Overcast OVC025 0 -5.9 65% -6 75.74 0.0
05 09:35 NW 20 16.09 Overcast OVC025 0 -5.8 65% -5 75.72 0.0
05 09:15 NW 20 16.09 Overcast BKN025 BKN030 OVC085 0 -5.8 65% -5 75.72 0.0
05 08:55 NW 20 16.09 Overcast BKN020 BKN027 OVC045 0 -5.5 67% -5 75.72 0.0
05 08:35 NW 24 16.09 Overcast OVC020 -0.6 -5.2 71% -6 75.69 0.0
05 08:15 NW 24 16.09 Overcast OVC020 -0.6 -5 72% -6 75.67 0.0
05 07:55 NW 24 16.09 Overcast BKN022 OVC043 -1 -5.2 73% -7 75.67 0.0
05 07:35 NW 22 16.09 Overcast BKN022 BKN043 OVC049 -1 -5.4 72% -6 75.64 0.0
05 07:15 NW 19 16.09 Overcast BKN022 OVC044 -1 -5.5 72% -6 75.64 0.0
05 06:55 NW 22 16.09 Overcast SCT022 BKN047 OVC055 -1.1 -5.6 -1 -2.7 72% -7 75.62 0.0
05 06:35 NW 22 16.09 Overcast SCT026 OVC065 -1.1 -5.9 70% -7 75.62 0.0
05 06:15 NW 22 G 30 16.09 Overcast BKN026 OVC065 -1.2 -6 70% -7 75.62 0.0
05 05:55 NW 13 16.09 Overcast SCT026 BKN044 OVC065 -1.1 -6 70% -5 75.59 0.0
05 05:35 NW 15 16.09 Overcast OVC044 -1.1 -6 70% -5 75.59 0.0
05 05:15 NW 15 16.09 Overcast OVC047 -1.1 -5.8 71% -5 75.59 0.0
05 04:55 NW 15 16.09 Overcast OVC045 -1.1 -5.6 72% -5 75.59 0.0
05 04:35 NW 15 16.09 Overcast OVC045 -1.3 -5.5 73% -6 75.57 0.0
05 04:15 NW 15 16.09 Overcast SCT047 BKN055 OVC075 -1.3 -5.5 73% -6 75.57 0.0
05 03:55 NW 15 16.09 Overcast OVC075 -1.5 -5.5 74% -6 75.57 0.0
05 03:35 NW 15 16.09 Overcast OVC075 -1.5 -5.5 74% -6 75.54 0.0
05 03:15 W 17 16.09 Overcast OVC075 -1.6 -5.6 74% -6 75.54 0.0
05 02:55 W 13 16.09 Overcast OVC075 -1.7 -5.6 75% -6 75.54 0.0
05 02:35 W 11 16.09 Mostly Cloudy BKN075 -2 -5.2 79% -6 75.54 0.0
05 02:15 W 11 16.09 Fair CLR -2.7 -5.5 81% -6 75.54 0.0
05 01:55 W 11 16.09 Fair CLR -2.5 -5.3 81% -6 75.54 0.0
05 01:35 W 11 16.09 Fair CLR -2.1 -5.1 80% -6 75.54 0.0
05 01:15 W 13 16.09 Partly Cloudy SCT036 -2 -5 80% -6 75.54 0.0
05 00:55 NW 15 16.09 Partly Cloudy SCT038 -1.6 -4.5 6 -1.6 81% -6 75.54 0.0
05 00:35 W 13 16.09 Fair CLR -1.5 -4.4 81% -5 75.54 0.0
05 00:15 W 13 16.09 Fair CLR -1.2 -4.5 79% -5 75.49 0.0
04 23:55 W 13 16.09 Fair CLR -0.6 -4.5 75% -4 75.49 0.0
04 23:35 NW 15 16.09 Fair CLR -0.3 -4.5 74% -4 75.49 0.0
04 23:15 NW 19 16.09 Partly Cloudy SCT090 -0.4 -4.7 73% -5 75.49 0.0
04 22:55 NW 13 16.09 Partly Cloudy SCT090 -0.1 -4.8 71% -4 75.49 0.0
04 22:35 NW 22 16.09 Mostly Cloudy BKN090 0.6 -4.5 69% -4 75.46 0.0
04 22:15 NW 20 G 30 16.09 Mostly Cloudy BKN090 1 -4.5 67% -4 75.46 0.0
04 21:55 NW 20 16.09 Partly Cloudy SCT090 1.5 -4.5 65% -3 75.44 0.0
04 21:35 NW 30 G 37 16.09 Overcast OVC090 2 -4.1 64% -3 75.41 0.0
04 21:15 NW 26 G 33 16.09 Overcast SCT041 OVC090 2.7 -4.3 60% -2 75.41 0.0
04 20:55 NW 35 16.09 Overcast and Breezy SCT041 BKN050 OVC090 3.3 -4.5 57% -2 75.36 0.0
04 20:35 NW 30 G 39 16.09 Mostly Cloudy BKN050 BKN090 3.7 -5.5 51% -1 75.34 0.0
04 20:15 W 19 16.09 Partly Cloudy SCT055 SCT070 3.8 -5.7 50% 0 75.31 0.0
04 19:55 NW 31 G 43 16.09 Partly Cloudy SCT060 SCT070 4.5 -6 47% -0 75.31 0.0
04 19:35 W 39 G 48 16.09 Mostly Cloudy and Breezy BKN060 BKN085 5.3 -5.7 45% 0 75.29 0.0
04 19:15 NW 28 G 44 16.09 Partly Cloudy SCT055 SCT065 SCT075 5.7 -5.9 43% 2 75.29 0.0
04 18:55 NW 31 G 44 16.09 Partly Cloudy SCT050 SCT060 SCT075 5.2 -5.7 7.4 4.5 46% 1 75.29 0.0
04 18:35 NW 33 G 48 16.09 Mostly Cloudy and Breezy SCT050 BKN060 BKN075 5.5 -5 47% 1 75.26 0.0
04 18:15 NW 37 G 48 16.09 Mostly Cloudy and Breezy SCT050 SCT060 BKN075 5.6 -5.4 45% 1 75.23 0.0
04 17:55 NW 30 16.09 Overcast SCT050 SCT065 OVC070 5.8 -4.8 47% 1 75.23 0.0
04 17:35 NW 33 G 46 16.09 Overcast and Breezy BKN050 OVC065 5.9 -5.2 45% 1 75.21 0.0
04 17:15 NW 33 G 48 16.09 Overcast and Breezy BKN050 OVC070 5.9 -5.4 44% 1 75.21 0.0
04 16:55 W 33 G 44 16.09 Overcast and Breezy BKN055 BKN070 OVC085 6.1 -5.1 45% 2 75.21 0.0
04 16:35 NW 28 G 43 16.09 Overcast BKN055 OVC070 5.8 -5.2 45% 2 75.21 0.0
04 16:15 NW 35 G 50 16.09 Overcast and Breezy BKN055 OVC065 6.1 -5.5 44% 1 75.18 0.0
04 15:55 W 44 G 63 16.09 Overcast and Windy OVC055 6.9 -5.6 41% 2 75.16 0.0
04 15:35 NW 44 G 56 16.09 Overcast and Windy SCT050 BKN065 OVC075 6.3 -5.5 43% 1 75.16 0.0
04 15:15 NW 46 G 65 16.09 Windy NULL 6.5 -5.6 42% 1 75.16 0.0
04 14:55 W 30 G 46 16.09 Mostly Cloudy BKN045 BKN050 BKN065 5.9 -4.9 46% 2 75.13 0.0
04 14:35 W 33 G 44 16.09 Overcast and Breezy BKN043 OVC050 5 -4.4 51% 0 75.16 0.0
04 14:15 NW 43 G 52 16.09 Overcast and Windy BKN039 OVC046 5.5 -3.6 52% 0 75.16 0.0
04 13:55 NW 39 G 48 16.09 Overcast and Breezy BKN039 OVC047 4.5 -3.8 55% -1 75.11 0.0
04 13:35 NW 41 G 54 16.09 Overcast and Breezy SCT037 OVC047 5.1 -3.4 55% -0 75.11 0.0
04 13:15 NW 46 G 57 16.09 Overcast and Windy BKN035 OVC041 5.2 -2.9 56% -0 75.08 0.0
04 12:55 NW 33 G 50 16.09 Overcast and Breezy OVC033 4.6 -2.2 5 2.6 62% -0 75.06 0.0
04 12:35 NW 31 G 43 16.09 Overcast BKN030 OVC037 4.6 -1.5 65% -0 75.06 0.0
04 12:15 W 33 G 48 16.09 Overcast and Breezy BKN024 OVC032 4 -1.1 70% -1 75.06 0.0
04 11:55 NW 28 G 52 16.09 Overcast OVC024 3.5 -0.2 77% -1 75.06 0.0
04 11:35 W 39 G 48 16.09 Overcast and Breezy SCT014 BKN022 OVC031 3.4 1.2 86% -2 75.03 0.0
04 11:15 NW 41 G 50 16.09 Light Drizzle and Breezy SCT016 BKN023 OVC038 4.9 0.3 72% -0 75.01 0.0
04 10:55 W 33 G 52 16.09 Overcast and Breezy BKN022 BKN030 OVC036 4 0.1 76% -1 74.98 0.0
04 10:35 NW 35 G 46 16.09 Overcast and Breezy SCT012 BKN019 OVC036 3.8 2.1 89% -2 74.96 0.0
04 10:15 NW 31 G 46 16.09 Overcast OVC021 3.5 -0.3 76% -2 74.96 0.0
04 09:55 NW 41 G 59 16.09 Overcast and Breezy OVC023 3.5 -0.9 73% -2 74.93 0.0
04 09:35 NW 43 G 59 16.09 Overcast and Windy OVC021 3.4 -0.8 74% -3 74.9 0.0
04 09:15 NW 44 G 54 16.09 Overcast and Windy OVC017 3.3 -0.1 79% -3 74.88 0.0
04 08:55 NW 39 G 54 16.09 Overcast and Breezy OVC017 3.4 0 79% -2 74.88 0.0
04 08:35 NW 44 G 50 16.09 Overcast and Windy OVC017 3.3 0.3 81% -3 74.83 0.0
04 08:15 W 33 G 56 16.09 Overcast and Breezy OVC019 4 0.4 78% -1 74.8 0.0
04 07:55 NW 33 G 52 16.09 Overcast and Breezy OVC019 4.3 1.1 80% -1 74.78 0.0
04 07:35 NW 26 G 41 16.09 Overcast OVC019 4.3 1.3 81% -0 74.75 0.0
04 07:15 NW 31 G 50 16.09 Overcast OVC021 4.5 1.3 80% -0 74.73 0.0
04 06:55 NW 30 G 54 16.09 Overcast BKN019 OVC044 4.7 1.7 17.4 4.7 81% 0 74.7 0.0 0.08
04 06:35 NW 30 G 44 16.09 Overcast SCT019 BKN039 OVC046 5.3 2.6 83% 1 74.68 0.0
04 06:15 NW 37 G 54 16.09 Mostly Cloudy and Breezy SCT021 BKN041 5.5 2.9 84% 1 74.63 0.0
04 05:55 W 37 G 46 16.09 Mostly Cloudy and Breezy BKN023 BKN037 BKN045 6.2 3.7 84% 1 74.57 0.0
04 05:35 W 35 G 46 16.09 Mostly Cloudy and Breezy BKN023 BKN120 6.6 4.1 84% 2 74.57 0.0
04 05:15 W 28 G 33 16.09 Partly Cloudy SCT120 6.4 5 91% 2 74.52 0.0
04 04:55 W 20 16.09 Overcast SCT055 SCT080 OVC120 6.2 5.5 95% 3 74.5 0.0 0.08
04 04:35 W 20 16.09 Overcast SCT041 BKN050 OVC080 6.3 5.7 96% 3 74.52 0.0 0.08
04 04:15 W 19 8.05 Light Rain SCT039 OVC047 6.5 5.7 95% 3 74.52 0.0 0.08
04 03:55 W 28 G 37 16.09 Light Rain SCT021 BKN049 OVC055 7.1 4.5 84% 3 74.6 0.0
04 03:35 NW 30 G 44 16.09 Overcast SCT029 SCT034 OVC047 8.3 3.2 71% 5 74.57 0.0
04 03:15 NW 30 G 50 16.09 Overcast SCT031 OVC045 9.3 3 65% 6 74.6 0.0
04 02:55 NW 31 G 56 16.09 Overcast SCT031 OVC045 10 2.8 61% 7 74.6 0.0
04 02:35 NW 24 G 54 16.09 Mostly Cloudy BKN031 11.4 3.8 60% 74.57 0.0
04 02:15 NW 46 G 61 16.09 Partly Cloudy and Windy SCT090 13.2 5.6 60% 74.5 0.0
04 01:55 W 39 G 48 16.09 Mostly Cloudy and Breezy SCT065 BKN080 BKN110 16.4 1.2 36% 74.42 0.0
04 01:35 W 26 G 35 16.09 Overcast SCT065 OVC090 16.6 1 35% 74.42 0.0
04 01:15 SW 33 G 46 16.09 Overcast and Breezy OVC100 17.3 0.2 32% 74.42 0.0
04 00:55 SW 22 G 37 16.09 Mostly Cloudy SCT070 SCT080 BKN100 17.2 0.3 19 15.6 32% 74.45 0.0
04 00:35 W 35 G 57 16.09 Overcast and Breezy SCT065 SCT080 OVC100 16.9 0.1 32% 74.52 0.0
04 00:15 W 19 16.09 Mostly Cloudy SCT070 BKN100 16.5 -0.6 31% 74.52 0.0
03 23:55 SW 22 16.09 Partly Cloudy SCT110 15.7 -0.9 32% 74.5 0.0
03 23:35 SW 26 G 35 16.09 Fair CLR 15.7 -1.1 32% 74.52 0.0
03 23:15 SW 24 G 37 16.09 Fair CLR 15.8 -1 32% 74.52 0.0
03 22:55 SW 24 G 33 16.09 Fair CLR 16 -1 31% 74.57 0.0
03 22:35 SW 19 G 30 16.09 Fair CLR 16 -1 31% 74.63 0.0
03 22:15 S 20 G 28 16.09 Fair CLR 15.9 -1 32% 74.68 0.0
03 21:55 S 15 16.09 Fair CLR 15.9 -1 32% 74.7 0.0
03 21:35 S 15 16.09 Partly Cloudy SCT110 16.1 -1 31% 74.75 0.0
03 21:15 SW 17 16.09 Mostly Cloudy BKN110 16.6 -0.8 31% 74.78 0.0
03 20:55 SW 15 16.09 Partly Cloudy SCT100 16.9 -0.7 30% 74.8 0.0
03 20:35 SW 15 16.09 Fair CLR 17.4 -0.3 30% 74.85 0.0
03 20:15 SW 20 G 28 16.09 Fair CLR 18 -0.5 29% 74.88 0.0
03 19:55 SW 13 G 26 16.09 Fair CLR 18.6 -0.5 28% 74.93 0.0
03 19:35 SW 15 G 26 16.09 Fair CLR 18.8 -0.4 28% 74.96 0.0
03 19:15 SW 20 G 26 16.09 Fair CLR 18.8 -0.6 27% 74.98 0.0
03 18:55 SW 17 G 37 16.09 Partly Cloudy SCT095 19 -1.1 20.1 15.9 26% 75.01 0.0
03 18:35 W 20 G 41 16.09 Partly Cloudy SCT095 19.4 -1.3 25% 75.06 0.0
03 18:15 W 26 G 39 16.09 Fair CLR 20.1 -0.7 25% 75.08 0.0
03 17:55 W 31 G 39 16.09 Partly Cloudy SCT090 20 -0.5 25% 75.11 0.0
03 17:35 W 20 G 35 16.09 Partly Cloudy SCT090 19.2 -0.9 26% 75.13 0.0
03 17:15 W 26 G 43 16.09 Partly Cloudy SCT090 18.8 -1.3 26% 75.18 0.0
03 16:55 W 30 G 41 16.09 Partly Cloudy SCT090 19.7 -2 23% 75.21 0.0
03 16:35 W 20 G 33 16.09 Fair CLR 19.7 -2.8 22% 75.26 0.0
Date Time (cdt) Wind (kph) Vis. (km) Weather Sky Cond. Air Dwpt Max. Min. Relative Humidity Wind Chill (°C) Heat Index (°C) altimeter (cm) sea level (mb) 1 hr 3 hr 6 hr
6 hour
Temperature (ºC) Pressure Precipitation (cm)